Mount Auburn, Ohio
Current Conditions -  °F | °C
As of 7:53 PM on Sunday 21 Dec 2014 (Local Time) from KLUK Reporting Station
Clear Clear  
Wind Chill: 26°   Ceiling: Unl
Heat Index: 26°   Visibility: 8mi
Dew Point: 23°   Wind: 3mph
Humidity: 88%   Direction: 30°NNE
Pressure: 30.2"   Gusts: NA
Location:  39.1276°N, 84.5123°W
Report Text: KLUK 220053Z 03003KT 8SM CLR M03/M05 A3020 RMK AO2 SLP232 T10331050
Loading
Personal Weather Stations






























Interactive Weather Map New forecast layout! Learn more

10-Day Weather Forecast

Advertisements
Track Severe Weather on mobile